Time;durP1;ratioP1;P1;durP2;ratioP2;P2;SDS_P1;SDS_P2;PMS_P1;PMS_P2;Temp;Humidity;BMP_temperature;BMP_pressure;BME280_temperature;BME280_humidity;BME280_pressure;Samples;Min_cycle;Max_cycle;Signal;HPM_P1;HPM_P2
2023/02/13 00:00:52;;;;;;;;;;;;;;;5.18;53.25;101611.59;5090512;28;20431;-43
2023/02/13 00:03:17;;;;;;;;;;;;;;;5.25;53.42;101607.53;5091346;28;19940;-43
2023/02/13 00:05:43;;;;;;;;;;;;;;;5.35;53.23;101607.63;5091417;28;20273;-43
2023/02/13 00:08:08;;;;;;;;;;;;;;;5.49;52.99;101612.63;5091416;28;20398;-42
2023/02/13 00:10:33;;;;;;;;;;;;;;;5.60;52.64;101612.59;5091350;28;19918;-42
2023/02/13 00:12:59;;;;;;;;;;;;;;;5.21;53.25;101612.19;5091030;28;20356;-42
2023/02/13 00:15:24;;;;;;;;;;;;;;;5.28;53.18;101612.56;5090798;28;19920;-42
2023/02/13 00:17:49;;;;;;;;;;;;;;;5.07;53.75;101621.22;5091281;28;20356;-42
2023/02/13 00:20:15;;;;;;;;;;;;;;;5.02;54.10;101617.28;5091051;28;20450;-41
2023/02/13 00:22:40;;;;;;;;;;;;;;;4.89;54.01;101612.97;5091244;28;19929;-41
2023/02/13 00:25:06;;;;;;;;;;;;;;;5.06;54.18;101618.72;5090737;28;19933;-41
2023/02/13 00:27:31;;;;;;;;;;;;;;;4.97;54.11;101625.56;5091302;28;20057;-42
2023/02/13 00:29:57;;;;;;;;;;;;;;;5.26;53.52;101622.41;5091113;28;19935;-41
2023/02/13 00:32:22;;;;;;;;;;;;;;;5.47;52.92;101625.94;5091190;28;19919;-41
2023/02/13 00:34:47;;;;;;;;;;;;;;;5.17;52.50;101557.97;5090716;28;20371;-41
2023/02/13 00:37:13;;;;;;;;;;;;;;;5.35;52.95;101618.19;5091104;28;19919;-41
2023/02/13 00:39:38;;;;;;;;;;;;;;;5.32;52.84;101624.56;5091013;28;19912;-41
2023/02/13 00:42:03;;;;;;;;;;;;;;;5.42;52.94;101628.13;5091346;28;20303;-41
2023/02/13 00:44:29;;;;;;;;;;;;;;;5.27;53.31;101627.56;5091303;28;19916;-42
2023/02/13 00:46:54;;;;;;;;;;;;;;;5.44;52.95;101630.63;5090648;28;19953;-41
2023/02/13 00:49:19;;;;;;;;;;;;;;;5.45;53.09;101619.97;5091050;28;19919;-42
2023/02/13 00:51:44;;;;;;;;;;;;;;;5.32;53.40;101627.19;5090982;28;19912;-42
2023/02/13 00:54:10;;;;;;;;;;;;;;;5.27;53.14;101619.66;5090881;28;19966;-41
2023/02/13 00:56:35;;;;;;;;;;;;;;;5.18;53.77;101622.16;5090901;28;19995;-41
2023/02/13 00:59:00;;;;;;;;;;;;;;;5.16;54.19;101616.16;5091083;28;19919;-42
2023/02/13 01:01:26;;;;;;;;;;;;;;;5.45;52.98;101614.69;5076777;28;19962;-42
2023/02/13 01:03:51;;;;;;;;;;;;;;;5.65;52.48;101618.34;5070651;28;20399;-42
2023/02/13 01:06:16;;;;;;;;;;;;;;;5.43;53.18;101616.59;5070703;28;19963;-42
2023/02/13 01:08:41;;;;;;;;;;;;;;;5.17;53.73;101623.13;5070509;28;19916;-42
2023/02/13 01:11:07;;;;;;;;;;;;;;;5.25;53.40;101616.31;5070291;28;19916;-42
2023/02/13 01:13:32;;;;;;;;;;;;;;;5.38;53.41;101621.41;5073492;28;19924;-42
2023/02/13 01:15:58;;;;;;;;;;;;;;;5.42;52.98;101614.91;5074172;28;19913;-42
2023/02/13 01:18:23;;;;;;;;;;;;;;;5.36;52.84;101625.97;5073902;28;20010;-42
2023/02/13 01:21:02;;;;;;;;;;;;;;;5.30;53.23;101623.84;5073852;28;20372;-42
2023/02/13 01:23:35;;;;;;;;;;;;;;;5.03;53.87;101619.78;5073838;28;19920;-43
2023/02/13 01:26:02;;;;;;;;;;;;;;;5.01;53.91;101616.44;5078643;28;19912;-42
2023/02/13 01:28:28;;;;;;;;;;;;;;;5.07;53.60;101620.41;5093997;28;19912;-41
2023/02/13 01:30:54;;;;;;;;;;;;;;;5.36;53.05;101628.63;5093911;28;19919;-41
2023/02/13 01:33:19;;;;;;;;;;;;;;;5.13;53.46;101627.00;5094094;28;19916;-42
2023/02/13 01:35:44;;;;;;;;;;;;;;;5.07;54.04;101626.50;5093748;28;19912;-42
2023/02/13 01:38:09;;;;;;;;;;;;;;;5.00;54.44;101622.66;5093693;28;20015;-41
2023/02/13 01:40:35;;;;;;;;;;;;;;;5.16;53.54;101638.16;5093816;28;20403;-41
2023/02/13 01:43:00;;;;;;;;;;;;;;;5.24;54.09;101634.91;5093919;28;19916;-42
2023/02/13 01:45:27;;;;;;;;;;;;;;;5.24;53.74;101640.19;5093692;28;20259;-42
2023/02/13 01:47:57;;;;;;;;;;;;;;;5.55;52.87;101635.91;5093291;28;19960;-42
2023/02/13 01:50:22;;;;;;;;;;;;;;;5.47;53.64;101643.59;5093890;28;19916;-42
2023/02/13 01:52:49;;;;;;;;;;;;;;;5.48;53.34;101642.63;5093559;28;19942;-42
2023/02/13 01:55:15;;;;;;;;;;;;;;;5.37;53.61;101643.50;5093471;28;19923;-42
2023/02/13 01:57:42;;;;;;;;;;;;;;;5.42;53.39;101649.25;5093415;28;19912;-42
2023/02/13 02:00:12;;;;;;;;;;;;;;;5.12;54.09;101655.16;5093140;28;20448;-42
2023/02/13 02:02:41;;;;;;;;;;;;;;;5.05;54.38;101652.19;5093265;28;20323;-42
2023/02/13 02:05:07;;;;;;;;;;;;;;;4.58;56.97;101646.16;5092965;28;19919;-42
2023/02/13 02:07:33;;;;;;;;;;;;;;;4.37;58.03;101651.28;5093362;28;20447;-42
2023/02/13 02:10:01;;;;;;;;;;;;;;;3.85;59.26;101653.38;5093187;28;19970;-42
2023/02/13 02:12:53;;;;;;;;;;;;;;;3.60;61.12;101649.09;5093292;28;19912;-42
2023/02/13 02:15:18;;;;;;;;;;;;;;;3.51;60.98;101661.09;5091856;28;20011;-42
2023/02/13 02:17:44;;;;;;;;;;;;;;;3.23;62.11;101661.41;5093305;28;19912;-42
2023/02/13 02:20:09;;;;;;;;;;;;;;;3.60;61.47;101653.47;5092998;28;19912;-42
2023/02/13 02:22:53;;;;;;;;;;;;;;;3.57;61.31;101666.88;5092674;28;19970;-42
2023/02/13 02:25:37;;;;;;;;;;;;;;;3.43;61.93;101668.72;5090651;28;20003;-42
2023/02/13 02:28:08;;;;;;;;;;;;;;;3.40;62.13;101674.19;5072804;28;19959;-42
2023/02/13 02:30:52;;;;;;;;;;;;;;;3.76;61.25;101680.41;5072757;28;20408;-42
2023/02/13 02:33:21;;;;;;;;;;;;;;;3.09;63.03;101686.91;5072762;28;20011;-42
2023/02/13 02:36:02;;;;;;;;;;;;;;;3.10;63.64;101683.34;5072363;28;19919;-42
2023/02/13 02:38:33;;;;;;;;;;;;;;;3.03;63.53;101682.06;5071185;28;19912;-42
2023/02/13 02:44:05;;;;;;;;;;;;;;;2.90;64.79;101695.22;5070604;28;19970;-42
2023/02/13 02:49:57;;;;;;;;;;;;;;;3.01;64.27;101704.16;5071035;28;19913;-42
2023/02/13 02:52:18;;;;;;;;;;;;;;;3.03;64.77;101702.28;5071198;28;20020;-42
2023/02/13 03:06:10;;;;;;;;;;;;;;;3.16;63.80;101711.00;5049442;28;20598;-42
2023/02/13 03:14:05;;;;;;;;;;;;;;;2.61;65.41;101710.38;5071884;28;20345;-42
2023/02/13 03:22:28;;;;;;;;;;;;;;;2.62;66.07;101706.78;5071212;28;19973;-42
2023/02/13 03:24:57;;;;;;;;;;;;;;;2.60;65.16;101707.84;5071607;28;19919;-42
2023/02/13 03:30:21;;;;;;;;;;;;;;;2.68;65.41;101716.03;5071655;28;19919;-42
2023/02/13 03:33:05;;;;;;;;;;;;;;;2.48;65.01;101710.34;5071701;28;19920;-42
2023/02/13 03:38:31;;;;;;;;;;;;;;;2.24;66.32;101719.84;5071343;28;19919;-42
2023/02/13 03:41:19;;;;;;;;;;;;;;;2.22;66.80;101717.31;5071309;28;19913;-41
2023/02/13 03:43:44;;;;;;;;;;;;;;;2.47;65.27;101724.41;5071294;28;19916;-42
2023/02/13 03:46:10;;;;;;;;;;;;;;;2.24;66.41;101722.47;5071414;28;20310;-41
2023/02/13 03:51:35;;;;;;;;;;;;;;;2.08;66.67;101713.00;5071628;28;20503;-43
2023/02/13 03:54:02;;;;;;;;;;;;;;;1.73;67.24;101717.88;5071032;28;19921;-42
2023/02/13 03:59:17;;;;;;;;;;;;;;;1.79;67.35;101714.88;5071670;28;19935;-42
2023/02/13 04:01:49;;;;;;;;;;;;;;;2.02;66.80;101723.03;5071106;28;20015;-42
2023/02/13 04:04:19;;;;;;;;;;;;;;;1.95;66.58;101718.19;5071383;28;19948;-42
2023/02/13 04:07:04;;;;;;;;;;;;;;;1.89;67.63;101715.13;5071196;28;20322;-42
2023/02/13 04:09:30;;;;;;;;;;;;;;;1.76;67.36;101718.53;5070996;28;19922;-42
2023/02/13 04:12:05;;;;;;;;;;;;;;;1.72;67.97;101724.91;5070968;28;19912;-42
2023/02/13 04:14:39;;;;;;;;;;;;;;;1.54;68.62;101726.94;5071089;28;19973;-42
2023/02/13 04:17:10;;;;;;;;;;;;;;;1.74;68.22;101722.19;5071042;28;19912;-42
2023/02/13 04:19:36;;;;;;;;;;;;;;;1.92;67.71;101723.66;5071179;28;20010;-42
2023/02/13 04:22:01;;;;;;;;;;;;;;;1.85;66.97;101719.72;5070659;28;20411;-42
2023/02/13 04:24:27;;;;;;;;;;;;;;;1.81;68.19;101722.63;5071380;28;19916;-42
2023/02/13 04:26:53;;;;;;;;;;;;;;;1.99;67.82;101715.38;5087855;28;20252;-42
2023/02/13 04:29:20;;;;;;;;;;;;;;;2.06;66.27;101720.13;5091126;28;20378;-42
2023/02/13 04:31:45;;;;;;;;;;;;;;;1.96;67.78;101711.13;5083205;28;19916;-42
2023/02/13 04:34:10;;;;;;;;;;;;;;;1.81;67.10;101710.38;5080863;28;20311;-42
2023/02/13 04:36:35;;;;;;;;;;;;;;;1.52;68.35;101717.44;5079694;28;19927;-42
2023/02/13 04:39:01;;;;;;;;;;;;;;;1.46;67.87;101723.94;5081125;28;20041;-41
2023/02/13 04:41:26;;;;;;;;;;;;;;;1.46;67.52;101713.44;5078974;28;19916;-41
2023/02/13 04:43:51;;;;;;;;;;;;;;;1.36;68.42;101713.16;5081540;28;20069;-42
2023/02/13 04:46:17;;;;;;;;;;;;;;;1.29;68.61;101726.75;5079740;28;19917;-42
2023/02/13 04:48:42;;;;;;;;;;;;;;;1.40;69.26;101733.97;5083771;28;19923;-41
2023/02/13 04:51:07;;;;;;;;;;;;;;;1.25;69.03;101736.59;5084900;28;19912;-41
2023/02/13 04:53:33;;;;;;;;;;;;;;;1.07;69.70;101738.56;5082722;28;19913;-42
2023/02/13 04:55:58;;;;;;;;;;;;;;;1.03;70.30;101731.84;5074218;28;19919;-41
2023/02/13 04:58:23;;;;;;;;;;;;;;;1.31;69.66;101732.75;5089148;28;19916;-42
2023/02/13 05:00:48;;;;;;;;;;;;;;;1.32;69.15;101723.97;5091926;28;19920;-41
2023/02/13 05:03:14;;;;;;;;;;;;;;;1.43;69.07;101733.75;5094862;28;20352;-42
2023/02/13 05:05:39;;;;;;;;;;;;;;;1.22;69.19;101728.94;5091396;28;19983;-41
2023/02/13 05:08:05;;;;;;;;;;;;;;;1.38;69.05;101727.97;5074355;28;19918;-36
2023/02/13 05:10:31;;;;;;;;;;;;;;;1.10;69.88;101738.38;5074145;28;20281;-36
2023/02/13 05:12:57;;;;;;;;;;;;;;;1.06;69.94;101736.88;5074177;28;19919;-37
2023/02/13 05:15:22;;;;;;;;;;;;;;;1.21;68.77;101740.34;5074053;28;19931;-35
2023/02/13 05:17:48;;;;;;;;;;;;;;;1.11;68.53;101745.31;5073619;28;19913;-37
2023/02/13 05:20:13;;;;;;;;;;;;;;;0.99;69.35;101743.44;5081990;28;19955;-36
2023/02/13 05:25:29;;;;;;;;;;;;;;;0.92;68.49;101753.44;5092967;28;19920;-36
2023/02/13 05:27:54;;;;;;;;;;;;;;;0.88;69.22;101758.97;5094093;28;19916;-37
2023/02/13 05:30:20;;;;;;;;;;;;;;;0.93;69.42;101759.53;5093789;28;19923;-36
2023/02/13 05:32:45;;;;;;;;;;;;;;;0.91;69.03;101762.22;5093871;28;19920;-36
2023/02/13 05:35:10;;;;;;;;;;;;;;;0.82;70.15;101765.44;5093322;28;20398;-37
2023/02/13 05:37:36;;;;;;;;;;;;;;;1.24;78.24;101774.28;5093065;28;19939;-36
2023/02/13 05:40:01;;;;;;;;;;;;;;;4.27;74.07;101774.19;5093860;28;20098;-37
2023/02/13 05:42:26;;;;;;;;;;;;;;;4.94;68.70;101784.13;5094052;28;19924;-37
2023/02/13 05:44:51;;;;;;;;;;;;;;;6.46;68.18;101782.66;5093041;28;19970;-37
2023/02/13 05:47:17;;;;;;;;;;;;;;;6.20;62.58;101790.06;5093552;28;20403;-37
2023/02/13 05:49:42;;;;;;;;;;;;;;;5.68;58.46;101786.31;5093151;28;19947;-37
2023/02/13 05:52:07;;;;;;;;;;;;;;;5.28;61.85;101792.91;5093133;28;20356;-35
2023/02/13 05:54:32;;;;;;;;;;;;;;;4.66;62.26;101788.00;5092703;28;20003;-35
2023/02/13 05:56:58;;;;;;;;;;;;;;;4.36;62.19;101773.50;5092297;28;20348;-36
2023/02/13 05:59:23;;;;;;;;;;;;;;;4.55;60.03;101796.72;5091221;28;19999;-37
2023/02/13 06:01:48;;;;;;;;;;;;;;;4.86;64.32;101792.63;5092531;28;19936;-36
2023/02/13 06:04:14;;;;;;;;;;;;;;;5.20;58.40;101799.78;5091040;28;19912;-36
2023/02/13 06:06:39;;;;;;;;;;;;;;;5.16;57.50;101800.94;5088227;28;20002;-36
2023/02/13 06:09:04;;;;;;;;;;;;;;;5.51;58.68;101797.38;5071135;28;19920;-36
2023/02/13 06:11:29;;;;;;;;;;;;;;;5.05;56.75;101796.50;5071743;28;19963;-37
2023/02/13 06:13:55;;;;;;;;;;;;;;;5.12;56.44;101799.50;5077027;28;19941;-36
2023/02/13 06:16:21;;;;;;;;;;;;;;;5.99;53.70;101797.13;5091608;28;19947;-37
2023/02/13 06:18:46;;;;;;;;;;;;;;;4.77;55.91;101792.47;5091927;28;19912;-36
2023/02/13 06:21:11;;;;;;;;;;;;;;;4.25;57.82;101803.28;5091872;28;19928;-35
2023/02/13 06:23:37;;;;;;;;;;;;;;;4.31;57.26;101805.47;5092615;28;19952;-42
2023/02/13 06:26:06;;;;;;;;;;;;;;;3.95;58.08;101808.97;5092820;28;19977;-42
2023/02/13 06:28:31;;;;;;;;;;;;;;;5.04;56.56;101810.63;5092925;28;20380;-42
2023/02/13 06:30:57;;;;;;;;;;;;;;;5.24;54.65;101815.25;5092756;28;20011;-42
2023/02/13 06:33:22;;;;;;;;;;;;;;;4.90;54.76;101801.97;5092607;28;19916;-42
2023/02/13 06:35:47;;;;;;;;;;;;;;;4.32;57.02;101798.41;5092561;28;19998;-42
2023/02/13 06:38:13;;;;;;;;;;;;;;;4.35;58.51;101802.63;5093027;28;19936;-43
2023/02/13 06:40:38;;;;;;;;;;;;;;;4.82;57.50;101803.53;5092699;28;19954;-42
2023/02/13 06:43:03;;;;;;;;;;;;;;;5.60;54.14;101808.06;5092439;28;19978;-43
2023/02/13 06:45:28;;;;;;;;;;;;;;;5.04;55.75;101798.28;5092301;28;19920;-43
2023/02/13 06:47:54;;;;;;;;;;;;;;;5.35;54.97;101797.72;5092755;28;19912;-43
2023/02/13 06:50:19;;;;;;;;;;;;;;;5.32;55.39;101803.25;5092984;28;20423;-42
2023/02/13 06:52:48;;;;;;;;;;;;;;;5.14;55.53;101809.00;5092770;28;19912;-43
2023/02/13 06:55:14;;;;;;;;;;;;;;;6.42;53.46;101801.56;5092748;28;20091;-42
2023/02/13 06:57:39;;;;;;;;;;;;;;;6.39;52.42;101797.34;5092349;28;20411;-42
2023/02/13 07:00:05;;;;;;;;;;;;;;;6.08;52.53;101801.66;5092707;28;19912;-43
2023/02/13 07:02:31;;;;;;;;;;;;;;;6.52;51.78;101794.53;5092560;28;19916;-43
2023/02/13 07:04:56;;;;;;;;;;;;;;;6.67;51.13;101805.66;5091517;28;19966;-42
2023/02/13 07:07:21;;;;;;;;;;;;;;;7.76;49.43;101798.97;5092386;28;19960;-43
2023/02/13 07:09:46;;;;;;;;;;;;;;;7.52;48.51;101791.38;5091691;28;19971;-42
2023/02/13 07:12:12;;;;;;;;;;;;;;;7.60;49.27;101785.41;5091943;28;20032;-42
2023/02/13 07:14:37;;;;;;;;;;;;;;;7.49;48.44;101788.16;5091328;28;19923;-41
2023/02/13 07:17:02;;;;;;;;;;;;;;;7.61;48.56;101787.09;5092331;28;20375;-42
2023/02/13 07:19:28;;;;;;;;;;;;;;;9.11;46.82;101793.06;5091733;28;19912;-42
2023/02/13 07:21:53;;;;;;;;;;;;;;;8.50;45.46;101779.16;5091372;28;20502;-42
2023/02/13 07:24:18;;;;;;;;;;;;;;;8.31;46.40;101795.06;5091335;28;19912;-41
2023/02/13 07:26:44;;;;;;;;;;;;;;;8.19;46.34;101789.88;5091436;28;19920;-42
2023/02/13 07:29:09;;;;;;;;;;;;;;;9.16;45.73;101790.81;5091401;28;19912;-43
2023/02/13 07:31:38;;;;;;;;;;;;;;;9.13;44.75;101793.75;5091042;28;19912;-42
2023/02/13 07:34:03;;;;;;;;;;;;;;;8.58;45.20;101795.22;5090837;28;19920;-41
2023/02/13 07:36:28;;;;;;;;;;;;;;;8.21;46.21;101800.34;5091112;28;19935;-42
2023/02/13 07:38:53;;;;;;;;;;;;;;;8.41;47.16;101798.53;5091524;28;20302;-43
2023/02/13 07:41:19;;;;;;;;;;;;;;;9.87;43.62;101798.19;5091195;28;20002;-43
2023/02/13 07:43:44;;;;;;;;;;;;;;;11.00;40.92;101790.59;5090916;28;20320;-43
2023/02/13 07:46:09;;;;;;;;;;;;;;;11.25;40.07;101794.25;5090888;28;19955;-41
2023/02/13 07:48:35;;;;;;;;;;;;;;;12.08;38.66;101795.44;5091016;28;19935;-42
2023/02/13 07:51:01;;;;;;;;;;;;;;;12.96;37.23;101785.97;5090545;28;19916;-42
2023/02/13 07:53:26;;;;;;;;;;;;;;;13.64;35.48;101795.34;5091010;28;20024;-42
2023/02/13 07:55:51;;;;;;;;;;;;;;;13.68;35.10;101792.13;5090826;28;20439;-43
2023/02/13 07:58:17;;;;;;;;;;;;;;;13.65;34.92;101789.81;5091087;28;20422;-42
2023/02/13 08:00:42;;;;;;;;;;;;;;;14.31;34.32;101789.44;5090938;28;19916;-42
2023/02/13 08:03:08;;;;;;;;;;;;;;;13.80;34.13;101781.91;5091071;28;19948;-43
2023/02/13 08:05:34;;;;;;;;;;;;;;;12.13;36.42;101779.78;5090918;28;19922;-43
2023/02/13 08:07:59;;;;;;;;;;;;;;;12.22;36.78;101783.28;5090881;28;19912;-44
2023/02/13 08:13:09;;;;;;;;;;;;;;;14.10;34.48;101783.91;5090529;28;19954;-43
2023/02/13 08:15:34;;;;;;;;;;;;;;;13.09;35.02;101775.59;5091088;28;19916;-44
2023/02/13 08:17:59;;;;;;;;;;;;;;;12.34;36.86;101781.97;5090723;28;19945;-43
2023/02/13 08:20:25;;;;;;;;;;;;;;;13.73;35.09;101785.41;5090957;28;19912;-42
2023/02/13 08:22:50;;;;;;;;;;;;;;;14.08;33.51;101770.69;5092762;28;19920;-44
2023/02/13 08:25:17;;;;;;;;;;;;;;;13.17;35.17;101772.88;5094647;28;20312;-42
2023/02/13 08:27:43;;;;;;;;;;;;;;;13.33;35.69;101781.91;5094765;28;20363;-42
2023/02/13 08:30:08;;;;;;;;;;;;;;;14.43;33.63;101776.44;5094736;28;19912;-43
2023/02/13 08:32:33;;;;;;;;;;;;;;;14.87;32.82;101765.06;5093849;28;19926;-42
2023/02/13 08:34:59;;;;;;;;;;;;;;;13.87;34.72;101774.81;5075445;28;20019;-42
2023/02/13 08:37:24;;;;;;;;;;;;;;;13.87;34.15;101772.13;5074455;28;19912;-42
2023/02/13 08:39:49;;;;;;;;;;;;;;;13.36;34.97;101768.19;5074090;28;19912;-43
2023/02/13 08:42:15;;;;;;;;;;;;;;;12.70;36.24;101769.13;5074626;28;20383;-42
2023/02/13 08:44:41;;;;;;;;;;;;;;;13.14;35.46;101773.25;5074322;28;19979;-42
2023/02/13 08:47:07;;;;;;;;;;;;;;;12.34;36.34;101768.63;5074347;28;20028;-42
2023/02/13 08:49:32;;;;;;;;;;;;;;;12.35;37.39;101764.13;5073946;28;20322;-42
2023/02/13 08:51:58;;;;;;;;;;;;;;;13.06;36.17;101757.19;5073931;28;20407;-42
2023/02/13 08:54:23;;;;;;;;;;;;;;;14.22;33.73;101756.53;5073650;28;20049;-42
2023/02/13 08:56:49;;;;;;;;;;;;;;;15.18;33.24;101759.53;5074021;28;20022;-43
2023/02/13 08:59:14;;;;;;;;;;;;;;;15.54;32.78;101764.13;5074108;28;20044;-43
2023/02/13 09:01:39;;;;;;;;;;;;;;;15.75;31.29;101763.38;5073760;28;19912;-43
2023/02/13 09:04:05;;;;;;;;;;;;;;;16.28;31.55;101763.13;5074056;28;19912;-43
2023/02/13 09:06:30;;;;;;;;;;;;;;;16.76;30.10;101754.44;5074181;28;20055;-43
2023/02/13 09:08:55;;;;;;;;;;;;;;;17.09;29.61;101753.84;5073867;28;19919;-43
2023/02/13 09:11:22;;;;;;;;;;;;;;;17.35;29.50;101754.00;5074078;28;19912;-41
2023/02/13 09:13:48;;;;;;;;;;;;;;;17.29;29.33;101746.72;5074302;28;19919;-42
2023/02/13 09:16:13;;;;;;;;;;;;;;;16.26;30.44;101753.56;5073730;28;19916;-43
2023/02/13 09:18:38;;;;;;;;;;;;;;;15.05;31.80;101741.41;5081218;28;19912;-42
2023/02/13 09:21:05;;;;;;;;;;;;;;;15.05;32.26;101737.88;5094084;28;19923;-42
2023/02/13 09:23:34;;;;;;;;;;;;;;;15.75;31.46;101741.09;5093663;28;19920;-42
2023/02/13 09:26:00;;;;;;;;;;;;;;;16.18;30.45;101733.06;5093363;28;19912;-43
2023/02/13 09:28:26;;;;;;;;;;;;;;;16.13;30.60;101732.81;5093702;28;19912;-43
2023/02/13 09:30:51;;;;;;;;;;;;;;;16.08;30.37;101730.69;5094110;28;19919;-42
2023/02/13 09:33:17;;;;;;;;;;;;;;;16.49;30.31;101724.66;5093496;28;19918;-43
2023/02/13 09:35:45;;;;;;;;;;;;;;;16.86;29.75;101719.16;5093666;28;19923;-43
2023/02/13 09:38:11;;;;;;;;;;;;;;;17.05;29.26;101709.56;5094127;28;19912;-42
2023/02/13 09:40:42;;;;;;;;;;;;;;;16.35;29.98;101712.13;5093506;28;19912;-42
2023/02/13 09:43:12;;;;;;;;;;;;;;;16.71;29.58;101711.16;5093373;28;20366;-44
2023/02/13 09:45:38;;;;;;;;;;;;;;;15.71;30.78;101708.41;5084418;28;19916;-41
2023/02/13 09:48:04;;;;;;;;;;;;;;;15.66;31.51;101696.56;5084486;28;20309;-43
2023/02/13 09:50:30;;;;;;;;;;;;;;;16.05;31.22;101696.19;5081979;28;19966;-43
2023/02/13 09:52:57;;;;;;;;;;;;;;;16.58;30.11;101693.09;5084147;28;19961;-44
2023/02/13 09:55:36;;;;;;;;;;;;;;;16.40;30.36;101686.34;5083501;28;19926;-43
2023/02/13 09:58:04;;;;;;;;;;;;;;;15.09;31.28;101688.22;5082378;28;19918;-43
2023/02/13 10:00:49;;;;;;;;;;;;;;;15.21;31.66;101686.75;5081933;28;19947;-43
2023/02/13 10:03:15;;;;;;;;;;;;;;;15.12;32.09;101676.31;5086886;28;20414;-43
2023/02/13 10:05:46;;;;;;;;;;;;;;;15.28;32.11;101670.75;5081894;28;20003;-42
2023/02/13 10:08:32;;;;;;;;;;;;;;;15.56;32.48;101670.03;5085488;28;19913;-42
2023/02/13 10:11:11;;;;;;;;;;;;;;;15.24;32.04;101667.59;5082617;28;19935;-43
2023/02/13 10:13:36;;;;;;;;;;;;;;;15.76;31.97;101655.03;5082116;28;19912;-43
2023/02/13 10:16:13;;;;;;;;;;;;;;;16.27;30.84;101650.50;5080716;28;20328;-44
2023/02/13 10:19:05;;;;;;;;;;;;;;;16.12;30.21;101645.19;5079609;28;20419;-44
2023/02/13 10:21:37;;;;;;;;;;;;;;;16.65;29.68;101636.69;5083056;28;19912;-42
2023/02/13 10:24:10;;;;;;;;;;;;;;;16.90;29.72;101637.06;5085118;28;20351;-43
2023/02/13 10:26:44;;;;;;;;;;;;;;;15.60;30.57;101639.13;5092732;28;19989;-43
2023/02/13 10:32:09;;;;;;;;;;;;;;;15.62;31.11;101619.09;5092125;28;19915;-42
2023/02/13 10:34:41;;;;;;;;;;;;;;;15.51;30.96;101614.25;5077326;28;20007;-42
2023/02/13 10:37:12;;;;;;;;;;;;;;;14.90;31.31;101611.88;5071791;28;19961;-42
2023/02/13 10:39:40;;;;;;;;;;;;;;;15.75;30.05;101601.53;5072264;28;19919;-42
2023/02/13 10:42:08;;;;;;;;;;;;;;;15.76;30.63;101589.75;5072574;28;19930;-43
2023/02/13 10:44:45;;;;;;;;;;;;;;;16.65;29.00;101591.81;5071586;28;19920;-43
2023/02/13 10:47:13;;;;;;;;;;;;;;;16.46;29.33;101589.88;5071720;28;20002;-42
2023/02/13 10:49:45;;;;;;;;;;;;;;;16.86;28.65;101584.72;5070953;28;19912;-43
2023/02/13 10:52:16;;;;;;;;;;;;;;;17.32;28.59;101584.88;5070321;28;19920;-43
2023/02/13 10:54:50;;;;;;;;;;;;;;;17.70;28.33;101578.91;5070073;28;20035;-43
2023/02/13 10:57:20;;;;;;;;;;;;;;;17.72;27.75;101570.63;5070441;28;20407;-43
2023/02/13 11:00:12;;;;;;;;;;;;;;;18.12;27.31;101574.19;5070174;28;19935;-42
2023/02/13 11:02:37;;;;;;;;;;;;;;;17.06;27.53;101566.81;5061840;28;20044;-43
2023/02/13 11:05:05;;;;;;;;;;;;;;;17.17;27.76;101555.47;5071190;28;20456;-42
2023/02/13 11:07:31;;;;;;;;;;;;;;;17.34;27.65;101550.53;5072269;28;20021;-44
2023/02/13 11:10:00;;;;;;;;;;;;;;;16.09;28.26;101554.28;5071415;28;20376;-44
2023/02/13 11:12:32;;;;;;;;;;;;;;;14.55;30.73;101549.16;5071659;28;19919;-42
2023/02/13 11:14:59;;;;;;;;;;;;;;;13.98;31.01;101540.72;5071593;28;19916;-42
2023/02/13 11:17:25;;;;;;;;;;;;;;;13.51;31.87;101533.75;5071747;28;19923;-42
2023/02/13 11:19:55;;;;;;;;;;;;;;;13.69;31.89;101534.28;5088140;28;19912;-42
2023/02/13 11:22:32;;;;;;;;;;;;;;;14.24;30.74;101520.69;5091311;28;20480;-42
2023/02/13 11:25:17;;;;;;;;;;;;;;;13.74;31.43;101515.00;5091128;28;19916;-42
2023/02/13 11:27:44;;;;;;;;;;;;;;;13.01;32.92;101509.19;5090879;28;19912;-42
2023/02/13 11:30:29;;;;;;;;;;;;;;;14.16;31.28;101510.09;5090918;28;20368;-42
2023/02/13 11:32:57;;;;;;;;;;;;;;;13.19;31.53;101503.53;5090710;28;19912;-42
2023/02/13 11:35:30;;;;;;;;;;;;;;;13.66;31.60;101497.19;5091157;28;19938;-43
2023/02/13 11:38:24;;;;;;;;;;;;;;;14.14;31.15;101490.69;5090736;28;20380;-43
2023/02/13 11:41:03;;;;;;;;;;;;;;;13.74;31.16;101490.09;5090437;28;19912;-43
2023/02/13 11:43:30;;;;;;;;;;;;;;;13.54;31.87;101487.94;5090852;28;19923;-43
2023/02/13 11:46:06;;;;;;;;;;;;;;;14.20;31.42;101487.28;5091151;28;20453;-43
2023/02/13 11:48:31;;;;;;;;;;;;;;;14.37;31.29;101485.25;5091105;28;19912;-42
2023/02/13 11:50:57;;;;;;;;;;;;;;;13.82;31.56;101473.97;5090575;28;20003;-42
2023/02/13 11:53:24;;;;;;;;;;;;;;;13.89;31.42;101475.72;5091104;28;20011;-41
2023/02/13 11:56:19;;;;;;;;;;;;;;;15.11;30.66;101457.47;5090889;28;20328;-42
2023/02/13 11:58:44;;;;;;;;;;;;;;;14.11;30.26;101459.78;5090713;28;19912;-42
2023/02/13 12:01:18;;;;;;;;;;;;;;;13.48;31.18;101454.72;5090980;28;19912;-43
2023/02/13 12:03:55;;;;;;;;;;;;;;;14.50;30.62;101452.44;5090749;28;20007;-43
2023/02/13 12:06:20;;;;;;;;;;;;;;;14.18;30.81;101444.63;5090779;28;19927;-43
2023/02/13 12:08:47;;;;;;;;;;;;;;;14.05;30.54;101444.44;5090954;28;19912;-42
2023/02/13 12:11:33;;;;;;;;;;;;;;;13.74;30.72;101442.78;5090721;28;19912;-43
2023/02/13 12:13:58;;;;;;;;;;;;;;;13.58;30.12;101429.56;5090381;28;20375;-42
2023/02/13 12:16:29;;;;;;;;;;;;;;;13.38;30.74;101432.75;5090588;28;19972;-43
2023/02/13 12:18:57;;;;;;;;;;;;;;;13.05;31.07;101427.63;5081457;28;19912;-43
2023/02/13 12:21:42;;;;;;;;;;;;;;;13.57;30.54;101423.38;5070617;28;19912;-44
2023/02/13 12:24:40;;;;;;;;;;;;;;;13.30;30.78;101414.09;5070109;28;19928;-42
2023/02/13 12:27:06;;;;;;;;;;;;;;;13.25;29.97;101397.75;5058443;28;19951;-42
2023/02/13 12:29:37;;;;;;;;;;;;;;;13.94;29.50;101419.00;5070684;28;19944;-42
2023/02/13 12:32:11;;;;;;;;;;;;;;;14.19;29.21;101419.53;5088665;28;19912;-42
2023/02/13 12:34:42;;;;;;;;;;;;;;;14.27;29.38;101413.22;5090331;28;19947;-42
2023/02/13 12:37:26;;;;;;;;;;;;;;;14.40;29.50;101416.06;5090863;28;19913;-44
2023/02/13 12:40:14;;;;;;;;;;;;;;;14.16;29.25;101417.22;5090786;28;19965;-42
2023/02/13 12:42:46;;;;;;;;;;;;;;;13.56;30.04;101419.06;5087626;28;19912;-43
2023/02/13 12:45:30;;;;;;;;;;;;;;;13.86;28.97;101408.38;5090039;28;19920;-42
2023/02/13 12:47:58;;;;;;;;;;;;;;;14.99;27.48;101398.16;5090671;28;19912;-43
2023/02/13 12:51:01;;;;;;;;;;;;;;;14.27;28.80;101407.88;5090422;28;20332;-42
2023/02/13 12:53:32;;;;;;;;;;;;;;;13.79;28.78;101402.94;5068378;28;19970;-43
2023/02/13 12:56:01;;;;;;;;;;;;;;;14.21;28.74;101398.75;5067778;28;19940;-43
2023/02/13 12:58:26;;;;;;;;;;;;;;;14.81;28.36;101386.06;5079570;28;19958;-42
2023/02/13 13:00:51;;;;;;;;;;;;;;;14.23;29.35;101394.03;5090396;28;20456;-43
2023/02/13 13:03:16;;;;;;;;;;;;;;;14.26;28.67;101382.13;5090583;28;20443;-43
2023/02/13 13:06:00;;;;;;;;;;;;;;;15.00;28.81;101378.38;5089762;28;19916;-43
2023/02/13 13:08:33;;;;;;;;;;;;;;;14.65;28.37;101372.91;5091492;28;19916;-43
2023/02/13 13:11:01;;;;;;;;;;;;;;;13.67;29.16;101381.16;5094158;28;19912;-43
2023/02/13 13:13:45;;;;;;;;;;;;;;;14.13;28.57;101374.75;5094068;28;19908;-43
2023/02/13 13:16:13;;;;;;;;;;;;;;;14.55;27.91;101372.34;5093564;28;20384;-43
2023/02/13 13:18:39;;;;;;;;;;;;;;;13.91;28.42;101373.84;5086423;28;20010;-44
2023/02/13 13:21:16;;;;;;;;;;;;;;;13.43;29.01;101378.75;5073551;28;20418;-43
2023/02/13 13:23:59;;;;;;;;;;;;;;;13.62;28.80;101372.84;5073175;28;19960;-43
2023/02/13 13:26:25;;;;;;;;;;;;;;;13.55;28.88;101371.09;5073088;28;19919;-44
2023/02/13 13:28:55;;;;;;;;;;;;;;;13.08;29.64;101362.34;5073389;28;19912;-43
2023/02/13 13:31:25;;;;;;;;;;;;;;;13.32;29.98;101366.63;5085821;28;20476;-43
2023/02/13 13:33:50;;;;;;;;;;;;;;;14.28;28.64;101351.47;5093448;28;19969;-43
2023/02/13 13:36:36;;;;;;;;;;;;;;;13.61;29.12;101359.66;5093448;28;19908;-43
2023/02/13 13:39:04;;;;;;;;;;;;;;;13.33;29.41;101356.75;5093262;28;19916;-43